Time;durP1;ratioP1;P1;durP2;ratioP2;P2;SDS_P1;SDS_P2;PMS_P1;PMS_P2;Temp;Humidity;BMP_temperature;BMP_pressure;BME280_temperature;BME280_humidity;BME280_pressure;Samples;Min_cycle;Max_cycle;Signal;HPM_P1;HPM_P2
2022/01/07 00:01:18;;;;;;;52.90;21.42;;;;;;;;;;6271836;22;20095;-93
2022/01/07 00:03:45;;;;;;;49.33;22.08;;;;;;;;;;6270102;22;20023;-94
2022/01/07 00:06:12;;;;;;;54.00;22.55;;;;;;;;;;6267198;23;20046;-94
2022/01/07 00:08:39;;;;;;;57.70;22.50;;;;;;;;;;6265659;23;20024;-94
2022/01/07 00:11:06;;;;;;;56.83;23.38;;;;;;;;;;6267614;23;20020;-94
2022/01/07 00:13:33;;;;;;;50.35;21.88;;;;;;;;;;6266243;23;20026;-94
2022/01/07 00:16:05;;;;;;;63.53;23.23;;;;;;;;;;6267326;23;20075;-94
2022/01/07 00:18:33;;;;;;;51.00;21.85;;;;;;;;;;6267686;23;20031;-94
2022/01/07 00:21:00;;;;;;;49.58;22.10;;;;;;;;;;6243305;23;20024;-94
2022/01/07 00:23:27;;;;;;;47.55;22.15;;;;;;;;;;6266813;23;20046;-94
2022/01/07 00:25:54;;;;;;;58.20;22.95;;;;;;;;;;6270023;22;20008;-94
2022/01/07 00:28:23;;;;;;;51.25;21.23;;;;;;;;;;6273149;22;20018;-93
2022/01/07 00:30:53;;;;;;;55.42;21.90;;;;;;;;;;6271388;22;20038;-94
2022/01/07 00:33:23;;;;;;;47.70;20.42;;;;;;;;;;6271047;22;20022;-92
2022/01/07 00:36:01;;;;;;;55.53;22.58;;;;;;;;;;6269334;22;20016;-93
2022/01/07 00:38:29;;;;;;;47.08;20.70;;;;;;;;;;6263528;23;20047;-94
2022/01/07 00:40:56;;;;;;;43.60;20.17;;;;;;;;;;6265755;23;20424;-94
2022/01/07 00:43:26;;;;;;;56.28;20.63;;;;;;;;;;6265597;23;20066;-94
2022/01/07 00:45:56;;;;;;;47.33;19.63;;;;;;;;;;6268078;23;20028;-94
2022/01/07 00:48:23;;;;;;;48.72;19.55;;;;;;;;;;6266900;23;20074;-94
2022/01/07 00:50:50;;;;;;;68.45;19.80;;;;;;;;;;6263216;23;20024;-94
2022/01/07 00:53:32;;;;;;;46.35;18.45;;;;;;;;;;6262728;23;20024;-94
2022/01/07 00:55:59;;;;;;;50.20;20.17;;;;;;;;;;6265382;23;20019;-94
2022/01/07 00:58:26;;;;;;;46.90;18.08;;;;;;;;;;6268044;22;20050;-94
2022/01/07 01:00:52;;;;;;;43.13;18.10;;;;;;;;;;6269238;23;20020;-94
2022/01/07 01:03:19;;;;;;;46.15;18.48;;;;;;;;;;6264050;22;20055;-93
2022/01/07 01:05:46;;;;;;;45.15;18.80;;;;;;;;;;6265132;23;20050;-94
2022/01/07 01:08:14;;;;;;;40.03;18.73;;;;;;;;;;6265694;23;20026;-93
2022/01/07 01:10:43;;;;;;;43.92;16.85;;;;;;;;;;6261038;23;20066;-94
2022/01/07 01:13:20;;;;;;;38.75;16.63;;;;;;;;;;6260312;23;20031;-94
2022/01/07 01:15:47;;;;;;;47.60;17.27;;;;;;;;;;6263311;23;20043;-93
2022/01/07 01:18:14;;;;;;;43.83;16.98;;;;;;;;;;6264830;23;20047;-93
2022/01/07 01:20:44;;;;;;;40.55;17.35;;;;;;;;;;6267462;22;20012;-94
2022/01/07 01:23:10;;;;;;;39.53;15.90;;;;;;;;;;6270746;22;20078;-93
2022/01/07 01:25:38;;;;;;;46.40;17.45;;;;;;;;;;6269338;22;20083;-94
2022/01/07 01:28:05;;;;;;;40.63;17.42;;;;;;;;;;6272110;22;20024;-92
2022/01/07 01:30:38;;;;;;;43.33;15.43;;;;;;;;;;6270686;22;20024;-93
2022/01/07 01:33:12;;;;;;;41.33;16.52;;;;;;;;;;6265731;22;20024;-93
2022/01/07 01:35:41;;;;;;;37.75;15.70;;;;;;;;;;6264556;23;20054;-93
2022/01/07 01:38:09;;;;;;;33.58;15.85;;;;;;;;;;6266346;23;20020;-93
2022/01/07 01:40:48;;;;;;;45.45;14.90;;;;;;;;;;6263754;23;20024;-93
2022/01/07 01:43:16;;;;;;;37.20;14.27;;;;;;;;;;6261501;23;20020;-93
2022/01/07 01:45:43;;;;;;;28.90;13.60;;;;;;;;;;6260705;23;20219;-93
2022/01/07 01:48:09;;;;;;;35.72;14.20;;;;;;;;;;6264683;23;20035;-93
2022/01/07 01:50:42;;;;;;;42.45;13.60;;;;;;;;;;6263909;23;20097;-93
2022/01/07 01:53:09;;;;;;;31.05;12.70;;;;;;;;;;6266497;23;20031;-93
2022/01/07 01:55:36;;;;;;;34.13;13.25;;;;;;;;;;6265998;23;20028;-93
2022/01/07 01:58:05;;;;;;;33.03;12.43;;;;;;;;;;6263472;22;20040;-93
2022/01/07 02:00:32;;;;;;;26.77;13.52;;;;;;;;;;6265390;23;20028;-93
2022/01/07 02:02:59;;;;;;;30.02;12.63;;;;;;;;;;6264788;23;20023;-93
2022/01/07 02:05:29;;;;;;;34.97;12.23;;;;;;;;;;6264264;23;20035;-94
2022/01/07 02:07:55;;;;;;;36.75;12.80;;;;;;;;;;6265385;23;20024;-94
2022/01/07 02:10:25;;;;;;;26.48;12.77;;;;;;;;;;6263362;23;20070;-94
2022/01/07 02:12:52;;;;;;;29.45;11.73;;;;;;;;;;6272035;22;20055;-94
2022/01/07 02:15:18;;;;;;;30.13;11.63;;;;;;;;;;6271006;22;20098;-93
2022/01/07 02:17:46;;;;;;;34.45;13.02;;;;;;;;;;6263361;23;20020;-93
2022/01/07 02:20:14;;;;;;;33.90;12.98;;;;;;;;;;6266201;22;20028;-94
2022/01/07 02:22:57;;;;;;;28.65;12.10;;;;;;;;;;6264684;23;20051;-94
2022/01/07 02:25:25;;;;;;;23.52;10.18;;;;;;;;;;6261871;23;20030;-93
2022/01/07 02:27:52;;;;;;;29.40;10.50;;;;;;;;;;6264845;23;20047;-93
2022/01/07 02:30:23;;;;;;;32.08;11.82;;;;;;;;;;6262127;23;20024;-95
2022/01/07 02:32:50;;;;;;;33.25;10.57;;;;;;;;;;6263343;23;20042;-94
2022/01/07 02:35:19;;;;;;;28.60;11.45;;;;;;;;;;6270489;22;20035;-95
2022/01/07 02:37:45;;;;;;;28.45;9.95;;;;;;;;;;6271427;22;20073;-94
2022/01/07 02:40:13;;;;;;;24.58;10.18;;;;;;;;;;6272366;22;20024;-94
2022/01/07 02:42:40;;;;;;;28.55;9.80;;;;;;;;;;6272131;22;20063;-93
2022/01/07 02:45:08;;;;;;;28.08;9.88;;;;;;;;;;6262186;23;20070;-94
2022/01/07 02:48:12;;;;;;;29.05;9.70;;;;;;;;;;6260753;23;20075;-94
2022/01/07 02:50:36;;;;;;;31.63;9.85;;;;;;;;;;6262567;22;20051;-94
2022/01/07 02:53:07;;;;;;;26.27;10.30;;;;;;;;;;6267388;22;20024;-93
2022/01/07 02:55:34;;;;;;;24.48;8.82;;;;;;;;;;6270019;22;20027;-94
2022/01/07 02:58:01;;;;;;;23.48;9.57;;;;;;;;;;6264388;23;20031;-94
2022/01/07 03:00:29;;;;;;;18.63;8.15;;;;;;;;;;6262350;23;20043;-95
2022/01/07 03:02:56;;;;;;;22.40;8.70;;;;;;;;;;6259331;23;20075;-92
2022/01/07 03:05:24;;;;;;;24.10;9.35;;;;;;;;;;6260157;23;20023;-94
2022/01/07 03:07:52;;;;;;;24.90;9.32;;;;;;;;;;6259280;23;20035;-94
2022/01/07 03:10:20;;;;;;;28.15;8.82;;;;;;;;;;6258942;23;20027;-94
2022/01/07 03:12:47;;;;;;;19.77;8.43;;;;;;;;;;6259511;23;20024;-94
2022/01/07 03:15:14;;;;;;;30.15;9.75;;;;;;;;;;6259176;23;20028;-94
2022/01/07 03:17:41;;;;;;;23.33;8.52;;;;;;;;;;6258317;23;20024;-94
2022/01/07 03:20:08;;;;;;;30.77;9.57;;;;;;;;;;6257067;23;20020;-92
2022/01/07 03:22:35;;;;;;;24.17;8.77;;;;;;;;;;6258549;23;20031;-94
2022/01/07 03:25:02;;;;;;;24.10;9.57;;;;;;;;;;6258540;23;20051;-92
2022/01/07 03:27:29;;;;;;;27.77;10.25;;;;;;;;;;6259814;23;20051;-92
2022/01/07 03:29:55;;;;;;;21.00;8.63;;;;;;;;;;6258695;23;20276;-92
2022/01/07 03:32:24;;;;;;;30.73;9.85;;;;;;;;;;6257948;23;20050;-93
2022/01/07 03:34:51;;;;;;;24.17;9.98;;;;;;;;;;6257736;23;20119;-92
2022/01/07 03:37:18;;;;;;;25.85;10.20;;;;;;;;;;6257033;23;20028;-93
2022/01/07 03:39:44;;;;;;;24.17;9.50;;;;;;;;;;6266372;23;20051;-93
2022/01/07 03:42:11;;;;;;;26.40;9.95;;;;;;;;;;6264353;23;20031;-93
2022/01/07 03:44:41;;;;;;;30.58;11.68;;;;;;;;;;6270637;22;20012;-93
2022/01/07 03:47:08;;;;;;;21.02;9.98;;;;;;;;;;6269359;22;20034;-93
2022/01/07 03:49:41;;;;;;;22.58;11.45;;;;;;;;;;6263898;23;20080;-93
2022/01/07 03:52:11;;;;;;;26.27;10.77;;;;;;;;;;6264786;23;20023;-93
2022/01/07 03:54:38;;;;;;;25.38;12.23;;;;;;;;;;6266960;23;20024;-93
2022/01/07 03:57:08;;;;;;;26.88;11.23;;;;;;;;;;6269350;22;20039;-93
2022/01/07 03:59:39;;;;;;;31.80;12.90;;;;;;;;;;6267077;22;20083;-92
2022/01/07 04:02:07;;;;;;;29.33;12.48;;;;;;;;;;6267250;23;20078;-94
2022/01/07 04:04:34;;;;;;;32.97;13.32;;;;;;;;;;6267932;23;20031;-94
2022/01/07 04:07:01;;;;;;;30.15;12.70;;;;;;;;;;6267112;23;20051;-93
2022/01/07 04:09:27;;;;;;;28.00;10.98;;;;;;;;;;6268248;23;20026;-93
2022/01/07 04:11:58;;;;;;;26.15;12.68;;;;;;;;;;6267746;23;20024;-93
2022/01/07 04:14:25;;;;;;;26.08;13.30;;;;;;;;;;6268025;22;20024;-93
2022/01/07 04:16:53;;;;;;;21.98;12.10;;;;;;;;;;6267933;23;20016;-93
2022/01/07 04:19:21;;;;;;;29.33;12.18;;;;;;;;;;6267651;22;20027;-95
2022/01/07 04:22:25;;;;;;;27.50;13.40;;;;;;;;;;6269938;22;20029;-93
2022/01/07 04:24:52;;;;;;;35.85;13.02;;;;;;;;;;6267733;23;20047;-93
2022/01/07 04:27:19;;;;;;;26.85;13.40;;;;;;;;;;6241593;23;20024;-93
2022/01/07 04:29:45;;;;;;;30.08;12.85;;;;;;;;;;6266980;23;20020;-93
2022/01/07 04:32:12;;;;;;;29.70;13.75;;;;;;;;;;6267799;22;20031;-95
2022/01/07 04:34:38;;;;;;;29.65;13.63;;;;;;;;;;6270942;22;20004;-94
2022/01/07 04:37:09;;;;;;;25.58;13.43;;;;;;;;;;6267284;23;20054;-93
2022/01/07 04:39:36;;;;;;;29.77;13.00;;;;;;;;;;6271406;22;20012;-91
2022/01/07 04:42:04;;;;;;;33.72;13.27;;;;;;;;;;6271676;22;20044;-93
2022/01/07 04:44:30;;;;;;;21.70;13.10;;;;;;;;;;6271374;22;20019;-93
2022/01/07 04:47:23;;;;;;;28.83;12.98;;;;;;;;;;6271110;22;20054;-94
2022/01/07 04:49:50;;;;;;;26.98;13.13;;;;;;;;;;6268355;23;20035;-93
2022/01/07 04:52:22;;;;;;;27.70;12.63;;;;;;;;;;6267877;22;20020;-94
2022/01/07 04:54:50;;;;;;;31.65;14.45;;;;;;;;;;6269387;22;20031;-94
2022/01/07 04:57:16;;;;;;;33.22;14.10;;;;;;;;;;6270327;22;20066;-93
2022/01/07 04:59:44;;;;;;;31.10;13.93;;;;;;;;;;6266434;23;20023;-94
2022/01/07 05:02:11;;;;;;;29.05;14.43;;;;;;;;;;6272828;22;20022;-93
2022/01/07 05:04:38;;;;;;;36.58;14.35;;;;;;;;;;6273323;22;20024;-93
2022/01/07 05:07:05;;;;;;;31.88;13.68;;;;;;;;;;6274047;22;20008;-93
2022/01/07 05:09:34;;;;;;;33.63;14.40;;;;;;;;;;6274258;22;20023;-94
2022/01/07 05:12:02;;;;;;;31.80;15.45;;;;;;;;;;6273899;22;20008;-94
2022/01/07 05:14:29;;;;;;;31.05;15.65;;;;;;;;;;6274100;22;20031;-94
2022/01/07 05:17:13;;;;;;;31.33;15.07;;;;;;;;;;6269165;22;20027;-94
2022/01/07 05:19:45;;;;;;;30.77;15.68;;;;;;;;;;6274402;22;20008;-94
2022/01/07 05:22:20;;;;;;;36.10;15.25;;;;;;;;;;6273925;22;20043;-93
2022/01/07 05:24:47;;;;;;;28.67;13.20;;;;;;;;;;6273659;22;20031;-93
2022/01/07 05:27:19;;;;;;;26.90;14.73;;;;;;;;;;6272563;22;20008;-94
2022/01/07 05:29:46;;;;;;;32.72;15.13;;;;;;;;;;6249567;22;20008;-93
2022/01/07 05:32:16;;;;;;;31.25;14.77;;;;;;;;;;6248908;22;20012;-93
2022/01/07 05:34:43;;;;;;;29.30;15.68;;;;;;;;;;6248872;22;20030;-94
2022/01/07 05:37:14;;;;;;;31.15;14.70;;;;;;;;;;6249507;22;20024;-93
2022/01/07 05:40:17;;;;;;;35.22;15.68;;;;;;;;;;6249890;22;20015;-94
2022/01/07 05:42:44;;;;;;;29.08;13.70;;;;;;;;;;6248814;22;20012;-94
2022/01/07 05:45:12;;;;;;;27.98;14.48;;;;;;;;;;6249187;22;20060;-95
2022/01/07 05:47:41;;;;;;;31.58;15.18;;;;;;;;;;6249082;22;20027;-93
2022/01/07 05:50:10;;;;;;;37.40;14.20;;;;;;;;;;6274958;22;20055;-95
2022/01/07 05:52:39;;;;;;;27.83;14.90;;;;;;;;;;6249144;22;20004;-95
2022/01/07 05:55:19;;;;;;;28.95;15.18;;;;;;;;;;6252238;22;20003;-93
2022/01/07 05:57:48;;;;;;;35.65;15.25;;;;;;;;;;6249516;22;20031;-93
2022/01/07 06:00:18;;;;;;;26.60;14.45;;;;;;;;;;6248689;22;20028;-94
2022/01/07 06:02:55;;;;;;;28.10;14.10;;;;;;;;;;6249114;22;20030;-93
2022/01/07 06:06:02;;;;;;;26.40;14.40;;;;;;;;;;6249499;22;20012;-93
2022/01/07 06:08:32;;;;;;;;;;;;;;;;;;6249935;22;20004;-93
2022/01/07 06:11:00;;;;;;;28.65;14.73;;;;;;;;;;6274093;22;19899;-94
2022/01/07 06:13:27;;;;;;;30.10;15.02;;;;;;;;;;6249006;22;20032;-94
2022/01/07 06:16:00;;;;;;;32.42;17.05;;;;;;;;;;6248711;22;20008;-92
2022/01/07 06:18:31;;;;;;;29.17;15.83;;;;;;;;;;6249659;22;20008;-94
2022/01/07 06:20:58;;;;;;;26.50;15.50;;;;;;;;;;6273860;22;20498;-93
2022/01/07 06:23:29;;;;;;;30.60;14.68;;;;;;;;;;6249544;22;20008;-94
2022/01/07 06:26:38;;;;;;;27.02;14.43;;;;;;;;;;6249706;22;20020;-93
2022/01/07 06:29:10;;;;;;;38.55;16.85;;;;;;;;;;6249103;22;20018;-94
2022/01/07 06:31:37;;;;;;;27.70;15.95;;;;;;;;;;6249074;22;20020;-93
2022/01/07 06:34:20;;;;;;;24.60;15.98;;;;;;;;;;6249181;22;20009;-94
2022/01/07 06:36:47;;;;;;;30.17;16.92;;;;;;;;;;6249448;22;20031;-93
2022/01/07 06:42:51;;;;;;;32.03;17.17;;;;;;;;;;6266737;22;20015;-94
2022/01/07 06:45:34;;;;;;;25.27;15.93;;;;;;;;;;6276217;23;20030;-95
2022/01/07 06:48:02;;;;;;;25.75;16.05;;;;;;;;;;6249084;22;20026;-93
2022/01/07 06:50:45;;;;;;;28.20;16.33;;;;;;;;;;6250762;22;20016;-94
2022/01/07 06:53:25;;;;;;;33.70;16.77;;;;;;;;;;6249416;22;20012;-93
2022/01/07 06:59:47;;;;;;;33.63;18.42;;;;;;;;;;6274764;22;20031;-94
2022/01/07 07:02:28;;;;;;;27.10;17.77;;;;;;;;;;6249702;22;20013;-94
2022/01/07 07:05:09;;;;;;;32.20;19.50;;;;;;;;;;6250669;22;20032;-94
2022/01/07 07:08:21;;;;;;;33.47;20.60;;;;;;;;;;6247736;22;20039;-93
2022/01/07 07:11:02;;;;;;;35.70;18.23;;;;;;;;;;6251398;22;20012;-95
2022/01/07 07:13:42;;;;;;;29.13;19.13;;;;;;;;;;6249561;22;20027;-95
2022/01/07 07:16:14;;;;;;;32.65;19.15;;;;;;;;;;6248028;22;20063;-94
2022/01/07 07:18:50;;;;;;;32.70;20.42;;;;;;;;;;6249395;22;20027;-93
2022/01/07 07:21:31;;;;;;;32.03;19.88;;;;;;;;;;6250580;22;20008;-93
2022/01/07 07:24:14;;;;;;;30.20;18.30;;;;;;;;;;6250645;22;20059;-94
2022/01/07 07:26:58;;;;;;;32.23;19.53;;;;;;;;;;6273746;22;20031;-94
2022/01/07 07:29:39;;;;;;;34.30;20.42;;;;;;;;;;6251090;22;20419;-94
2022/01/07 07:32:25;;;;;;;37.67;20.60;;;;;;;;;;6251324;22;20008;-94
2022/01/07 07:37:55;;;;;;;29.88;17.80;;;;;;;;;;6252666;22;20023;-95
2022/01/07 07:40:58;;;;;;;30.95;19.95;;;;;;;;;;6273416;22;20010;-95
2022/01/07 09:04:18;;;;;;;39.10;24.70;;;;;;;;;;6231185;22;20012;-94
2022/01/07 09:07:26;;;;;;;39.22;25.02;;;;;;;;;;6222112;23;20000;-95
2022/01/07 09:10:36;;;;;;;36.97;24.88;;;;;;;;;;6233610;23;20004;-94
2022/01/07 09:13:16;;;;;;;35.60;25.92;;;;;;;;;;6222094;23;20000;-94
2022/01/07 09:16:00;;;;;;;37.47;25.55;;;;;;;;;;6222240;23;20001;-95
2022/01/07 09:18:41;;;;;;;32.65;23.35;;;;;;;;;;6221929;23;20013;-95
2022/01/07 09:21:27;;;;;;;37.10;26.15;;;;;;;;;;6244397;23;19996;-95
2022/01/07 09:24:30;;;;;;;34.88;25.33;;;;;;;;;;6244164;23;19996;-93
2022/01/07 09:27:11;;;;;;;35.85;25.13;;;;;;;;;;6222082;23;20005;-93
2022/01/07 09:30:15;;;;;;;36.90;25.33;;;;;;;;;;6221985;23;19997;-96
2022/01/07 09:33:01;;;;;;;34.47;25.75;;;;;;;;;;6244580;23;20003;-93
2022/01/07 09:36:04;;;;;;;35.80;24.20;;;;;;;;;;6243393;23;20004;-95
2022/01/07 09:38:49;;;;;;;38.53;25.77;;;;;;;;;;6221885;23;20001;-95
2022/01/07 09:41:30;;;;;;;39.30;25.10;;;;;;;;;;6244292;23;20028;-93
2022/01/07 09:44:17;;;;;;;39.58;24.70;;;;;;;;;;6244299;23;20047;-93
2022/01/07 09:47:01;;;;;;;36.67;26.30;;;;;;;;;;6222112;23;19997;-94
2022/01/07 09:49:44;;;;;;;33.83;24.17;;;;;;;;;;6246177;23;20000;-92
2022/01/07 09:52:47;;;;;;;38.00;24.38;;;;;;;;;;6245073;23;20001;-94
2022/01/07 09:55:28;;;;;;;37.65;24.85;;;;;;;;;;6223544;23;20025;-92
2022/01/07 09:58:14;;;;;;;33.30;21.63;;;;;;;;;;6246691;23;20008;-94
2022/01/07 10:01:22;;;;;;;30.42;22.88;;;;;;;;;;6246211;23;19996;-95
2022/01/07 10:04:07;;;;;;;31.85;21.67;;;;;;;;;;6232328;23;20051;-95
2022/01/07 10:07:08;;;;;;;34.55;23.13;;;;;;;;;;6253881;23;20005;-95
2022/01/07 10:10:26;;;;;;;36.25;21.50;;;;;;;;;;6276386;23;20007;-94
2022/01/07 10:13:40;;;;;;;31.85;22.27;;;;;;;;;;6261295;23;20004;-95
2022/01/07 10:16:23;;;;;;;35.03;22.67;;;;;;;;;;6253427;23;20007;-96
2022/01/07 10:19:05;;;;;;;29.50;21.20;;;;;;;;;;6230660;23;20012;-95
2022/01/07 10:21:54;;;;;;;32.88;22.42;;;;;;;;;;6253803;23;19996;-95
2022/01/07 10:24:59;;;;;;;32.42;21.33;;;;;;;;;;6276535;23;20003;-93
2022/01/07 10:28:02;;;;;;;35.67;22.40;;;;;;;;;;6253663;23;20051;-94
2022/01/07 10:30:47;;;;;;;31.92;21.23;;;;;;;;;;6253522;23;20000;-93
2022/01/07 10:33:30;;;;;;;35.72;21.40;;;;;;;;;;6254681;23;20047;-95
2022/01/07 10:36:31;;;;;;;32.58;20.13;;;;;;;;;;6253243;23;20015;-95
2022/01/07 10:39:28;;;;;;;29.25;20.77;;;;;;;;;;6275602;23;20031;-95
2022/01/07 10:42:10;;;;;;;30.67;19.65;;;;;;;;;;6276270;23;20004;-94
2022/01/07 10:45:04;;;;;;;35.08;20.08;;;;;;;;;;6253515;23;20004;-95
2022/01/07 10:47:51;;;;;;;33.88;20.60;;;;;;;;;;6231594;23;20023;-95
2022/01/07 10:50:31;;;;;;;31.02;19.92;;;;;;;;;;6253541;23;20000;-95
2022/01/07 10:53:38;;;;;;;28.60;19.73;;;;;;;;;;6275184;23;20028;-95
2022/01/07 10:56:20;;;;;;;31.17;20.85;;;;;;;;;;6253432;23;20015;-94
2022/01/07 10:59:05;;;;;;;34.00;19.55;;;;;;;;;;6252799;23;20008;-95
2022/01/07 11:01:57;;;;;;;31.52;20.15;;;;;;;;;;6249759;23;20002;-95
2022/01/07 11:04:41;;;;;;;44.67;21.08;;;;;;;;;;6251881;22;20024;-94
2022/01/07 11:07:24;;;;;;;29.40;21.15;;;;;;;;;;6252588;22;20008;-94
2022/01/07 11:09:59;;;;;;;36.10;21.65;;;;;;;;;;6250176;22;20004;-95
2022/01/07 11:28:20;;;;;;;42.27;22.63;;;;;;;;;;6239993;22;20018;-92
2022/01/07 11:31:04;;;;;;;39.67;23.05;;;;;;;;;;6250814;22;20008;-94
2022/01/07 11:33:48;;;;;;;34.08;21.35;;;;;;;;;;6251605;22;20005;-93
2022/01/07 11:36:37;;;;;;;42.25;22.00;;;;;;;;;;6251515;22;20024;-94
2022/01/07 11:39:19;;;;;;;40.65;21.92;;;;;;;;;;6251155;22;20034;-94
2022/01/07 11:42:00;;;;;;;34.38;20.30;;;;;;;;;;6251195;22;20004;-94
2022/01/07 11:44:46;;;;;;;45.00;20.88;;;;;;;;;;6274153;22;20004;-94
2022/01/07 11:47:28;;;;;;;38.35;20.25;;;;;;;;;;6250866;22;20004;-95
2022/01/07 11:50:08;;;;;;;41.88;21.33;;;;;;;;;;6251391;22;20048;-93
2022/01/07 11:53:01;;;;;;;47.20;21.02;;;;;;;;;;6229276;22;20031;-96
2022/01/07 11:55:42;;;;;;;41.00;19.50;;;;;;;;;;6250978;22;20015;-94
2022/01/07 11:58:36;;;;;;;30.83;18.77;;;;;;;;;;6249512;22;20016;-94
2022/01/07 12:01:28;;;;;;;32.97;18.02;;;;;;;;;;6273925;22;20000;-93
2022/01/07 12:04:29;;;;;;;46.97;18.75;;;;;;;;;;6251065;22;20011;-94
2022/01/07 12:07:12;;;;;;;32.85;16.52;;;;;;;;;;6251210;22;20000;-96
2022/01/07 12:10:09;;;;;;;28.55;16.95;;;;;;;;;;6245779;22;20019;-95
2022/01/07 12:12:57;;;;;;;30.75;16.08;;;;;;;;;;6251239;22;20007;-95
2022/01/07 12:15:40;;;;;;;24.67;15.77;;;;;;;;;;6249989;22;20035;-95
2022/01/07 12:18:33;;;;;;;32.28;16.35;;;;;;;;;;6248883;22;20004;-96
2022/01/07 12:21:13;;;;;;;29.35;13.93;;;;;;;;;;6251066;22;20019;-95
2022/01/07 12:24:07;;;;;;;24.33;12.15;;;;;;;;;;6248908;22;20008;-94
2022/01/07 12:27:04;;;;;;;22.13;12.05;;;;;;;;;;6249857;22;20019;-93
2022/01/07 12:29:49;;;;;;;24.52;12.63;;;;;;;;;;6252737;23;20008;-95
2022/01/07 12:32:55;;;;;;;30.88;15.25;;;;;;;;;;6252360;23;20004;-95
2022/01/07 12:35:58;;;;;;;18.90;10.37;;;;;;;;;;6251200;22;20008;-95
2022/01/07 12:38:39;;;;;;;16.42;9.68;;;;;;;;;;6250596;22;20084;-94
2022/01/07 12:49:08;;;;;;;20.90;12.30;;;;;;;;;;6253869;22;20018;-94
2022/01/07 12:52:21;;;;;;;19.27;13.40;;;;;;;;;;6250114;22;20054;-94
2022/01/07 12:55:16;;;;;;;56.00;28.98;;;;;;;;;;6205671;22;20012;-96
2022/01/07 12:57:58;;;;;;;20.95;11.45;;;;;;;;;;6249741;22;20012;-95
2022/01/07 13:16:59;;;;;;;23.07;11.33;;;;;;;;;;6271273;22;20075;-94
2022/01/07 13:19:52;;;;;;;23.42;11.90;;;;;;;;;;6273307;22;20008;-94
2022/01/07 13:23:05;;;;;;;25.13;11.45;;;;;;;;;;6275200;22;20091;-94
2022/01/07 13:25:45;;;;;;;20.67;12.60;;;;;;;;;;6273008;22;20012;-95
2022/01/07 13:32:11;;;;;;;23.27;12.77;;;;;;;;;;6276383;22;20003;-95
2022/01/07 13:34:40;;;;;;;19.58;12.52;;;;;;;;;;6275470;22;20059;-94
2022/01/07 13:37:21;;;;;;;19.50;12.93;;;;;;;;;;6273700;22;20008;-94
2022/01/07 13:46:52;;;;;;;31.52;13.00;;;;;;;;;;6214500;23;20011;-95
2022/01/07 13:49:33;;;;;;;23.35;13.55;;;;;;;;;;6212521;23;20029;-95
2022/01/07 13:52:25;;;;;;;27.42;13.00;;;;;;;;;;6211518;23;20031;-95
2022/01/07 13:58:31;;;;;;;21.33;13.63;;;;;;;;;;6214087;23;20016;-94
2022/01/07 14:01:11;;;;;;;23.88;13.63;;;;;;;;;;6213549;23;20039;-95
2022/01/07 14:06:22;;;;;;;28.63;14.90;;;;;;;;;;6248996;22;20021;-93
2022/01/07 14:09:10;;;;;;;30.55;15.02;;;;;;;;;;6305900;22;20012;-95
2022/01/07 14:12:22;;;;;;;25.83;15.70;;;;;;;;;;6304895;22;20008;-95
2022/01/07 14:15:10;;;;;;;29.05;14.20;;;;;;;;;;6304215;22;20019;-95
2022/01/07 14:21:23;;;;;;;22.60;13.90;;;;;;;;;;6305205;22;20038;-95
2022/01/07 14:24:05;;;;;;;25.95;13.73;;;;;;;;;;6302332;22;20030;-95
2022/01/07 14:34:13;;;;;;;31.02;12.82;;;;;;;;;;6304273;22;20026;-94
2022/01/07 14:36:54;;;;;;;16.67;9.45;;;;;;;;;;6304527;22;20008;-95
2022/01/07 15:43:13;;;;;;;20.40;10.53;;;;;;;;;;6250283;22;20146;-94
2022/01/07 15:45:57;;;;;;;11.57;7.32;;;;;;;;;;6275086;22;20008;-96
2022/01/07 16:35:16;;;;;;;17.73;9.90;;;;;;;;;;6260979;22;20035;-94
2022/01/07 16:37:46;;;;;;;15.75;10.75;;;;;;;;;;6263380;22;20020;-93
2022/01/07 16:40:23;;;;;;;16.85;9.93;;;;;;;;;;6250790;23;20034;-91
2022/01/07 16:42:50;;;;;;;23.25;9.85;;;;;;;;;;6224202;23;20035;-92
2022/01/07 16:45:21;;;;;;;14.32;10.18;;;;;;;;;;6231146;23;20030;-93
2022/01/07 16:47:48;;;;;;;15.52;9.95;;;;;;;;;;6227668;23;20166;-92
2022/01/07 17:16:53;;;;;;;31.30;17.83;;;;;;;;;;6301345;22;19999;-95
2022/01/07 17:19:33;;;;;;;30.15;16.23;;;;;;;;;;6304180;22;20055;-93
2022/01/07 17:22:14;;;;;;;32.45;18.98;;;;;;;;;;6305335;22;20003;-93
2022/01/07 17:24:55;;;;;;;25.40;18.70;;;;;;;;;;6304948;22;20034;-95
2022/01/07 17:27:29;;;;;;;29.45;19.58;;;;;;;;;;6306361;22;20007;-94
2022/01/07 17:29:58;;;;;;;29.77;17.25;;;;;;;;;;6306240;22;20056;-94
2022/01/07 17:32:30;;;;;;;55.67;38.63;;;;;;;;;;6306315;22;20059;-95
2022/01/07 19:26:47;;;;;;;18.30;12.65;;;;;;;;;;6270788;22;20000;-94
2022/01/07 19:29:28;;;;;;;13.77;10.63;;;;;;;;;;6238600;22;20015;-94
2022/01/07 19:34:44;;;;;;;14.93;9.87;;;;;;;;;;6225675;22;20124;-96
2022/01/07 19:37:12;;;;;;;14.88;7.63;;;;;;;;;;6276197;22;20008;-96
2022/01/07 19:39:55;;;;;;;19.20;7.95;;;;;;;;;;6272121;22;20015;-94
2022/01/07 19:42:29;;;;;;;11.30;7.57;;;;;;;;;;6274593;22;20043;-93
2022/01/07 19:45:10;;;;;;;9.48;5.68;;;;;;;;;;6273770;22;20016;-94
2022/01/07 19:54:22;;;;;;;40.50;18.67;;;;;;;;;;6275278;22;20003;-93
2022/01/07 19:57:03;;;;;;;9.00;4.75;;;;;;;;;;6274590;22;20019;-93
2022/01/07 19:59:35;;;;;;;7.63;5.32;;;;;;;;;;6274122;22;20107;-93
2022/01/07 20:02:05;;;;;;;7.18;4.70;;;;;;;;;;6274360;22;20072;-92
2022/01/07 20:04:36;;;;;;;11.48;4.53;;;;;;;;;;6274333;22;20034;-93
2022/01/07 20:13:51;;;;;;;7.85;4.30;;;;;;;;;;6274921;22;20059;-93
2022/01/07 20:16:20;;;;;;;5.63;3.90;;;;;;;;;;6274199;22;20015;-94
2022/01/07 20:18:55;;;;;;;11.38;4.38;;;;;;;;;;6274039;22;20027;-94
2022/01/07 20:21:37;;;;;;;9.43;3.72;;;;;;;;;;6274016;22;20012;-94
2022/01/07 20:24:05;;;;;;;9.77;3.67;;;;;;;;;;6273995;22;20014;-94
2022/01/07 20:33:50;;;;;;;5.82;3.10;;;;;;;;;;6274658;22;20018;-94
2022/01/07 20:36:38;;;;;;;6.45;2.80;;;;;;;;;;6271584;22;20012;-93
2022/01/07 20:56:20;;;;;;;5.63;3.00;;;;;;;;;;6274823;22;20030;-95
2022/01/07 20:59:06;;;;;;;11.23;4.93;;;;;;;;;;6274608;22;20022;-94
2022/01/07 21:01:33;;;;;;;6.20;2.75;;;;;;;;;;6274281;22;20004;-94
2022/01/07 21:04:17;;;;;;;6.50;2.42;;;;;;;;;;6271900;22;20008;-94
2022/01/07 21:17:05;;;;;;;5.47;2.63;;;;;;;;;;6274787;22;20015;-94
2022/01/07 21:19:34;;;;;;;6.85;2.70;;;;;;;;;;6273663;22;20008;-93
2022/01/07 21:22:15;;;;;;;5.05;3.05;;;;;;;;;;6272588;22;20032;-94
2022/01/07 21:50:04;;;;;;;7.80;2.60;;;;;;;;;;6277861;22;20034;-93
2022/01/07 21:52:33;;;;;;;4.90;2.70;;;;;;;;;;6277294;23;20019;-93
2022/01/07 21:55:07;;;;;;;5.90;3.25;;;;;;;;;;6277716;22;20004;-94
2022/01/07 21:57:38;;;;;;;7.68;2.70;;;;;;;;;;6277064;23;20027;-95
2022/01/07 22:00:06;;;;;;;8.10;3.05;;;;;;;;;;6276867;23;20004;-94
2022/01/07 22:02:42;;;;;;;4.38;2.40;;;;;;;;;;6276632;23;20004;-95
2022/01/07 22:05:09;;;;;;;4.55;3.05;;;;;;;;;;6277132;23;20100;-95
2022/01/07 22:07:48;;;;;;;7.85;3.13;;;;;;;;;;6277062;23;20010;-94
2022/01/07 22:10:17;;;;;;;4.80;2.65;;;;;;;;;;6276962;23;20011;-94
2022/01/07 22:12:58;;;;;;;5.80;3.42;;;;;;;;;;6276522;23;20011;-94
2022/01/07 22:15:26;;;;;;;8.38;3.53;;;;;;;;;;6276755;23;20061;-94
2022/01/07 22:17:56;;;;;;;8.13;3.40;;;;;;;;;;6276528;23;20015;-94
2022/01/07 22:20:28;;;;;;;11.80;4.75;;;;;;;;;;6276829;23;20012;-95
2022/01/07 22:23:05;;;;;;;6.55;3.42;;;;;;;;;;6253118;23;20004;-95
2022/01/07 22:25:46;;;;;;;6.80;3.83;;;;;;;;;;6274361;23;20004;-94
2022/01/07 22:28:13;;;;;;;7.68;3.72;;;;;;;;;;6276690;23;20008;-94
2022/01/07 22:30:42;;;;;;;9.95;3.88;;;;;;;;;;6276577;23;20014;-94
2022/01/07 22:33:09;;;;;;;11.38;3.95;;;;;;;;;;6276789;23;20071;-95
2022/01/07 22:35:36;;;;;;;6.72;3.83;;;;;;;;;;6276595;23;20004;-95
2022/01/07 22:38:05;;;;;;;8.70;3.95;;;;;;;;;;6276309;23;20004;-94
2022/01/07 22:40:39;;;;;;;7.55;4.57;;;;;;;;;;6276550;23;20012;-95
2022/01/07 22:43:07;;;;;;;8.68;3.92;;;;;;;;;;6277253;23;20034;-95
2022/01/07 22:45:51;;;;;;;9.77;3.97;;;;;;;;;;6276496;23;20008;-95
2022/01/07 22:48:28;;;;;;;8.77;4.63;;;;;;;;;;6277083;22;20063;-94
2022/01/07 22:50:56;;;;;;;9.40;4.38;;;;;;;;;;6276469;23;20035;-93
2022/01/07 22:53:37;;;;;;;9.00;4.97;;;;;;;;;;6275657;23;20016;-94
2022/01/07 22:56:05;;;;;;;12.65;4.63;;;;;;;;;;6276225;23;20012;-94
2022/01/07 22:58:35;;;;;;;11.70;4.15;;;;;;;;;;6275842;23;20008;-93
2022/01/07 23:01:03;;;;;;;10.95;4.25;;;;;;;;;;6275737;23;20015;-94
2022/01/07 23:03:31;;;;;;;9.90;4.28;;;;;;;;;;6275889;23;20059;-92
2022/01/07 23:05:58;;;;;;;12.63;4.18;;;;;;;;;;6275794;23;20006;-94
2022/01/07 23:08:29;;;;;;;9.35;4.57;;;;;;;;;;6275989;23;20038;-94
2022/01/07 23:10:56;;;;;;;10.65;4.90;;;;;;;;;;6276009;23;20035;-94
2022/01/07 23:13:27;;;;;;;9.25;4.35;;;;;;;;;;6275979;23;20034;-94
2022/01/07 23:16:02;;;;;;;10.75;4.72;;;;;;;;;;6275988;23;20008;-94
2022/01/07 23:18:38;;;;;;;10.52;5.10;;;;;;;;;;6275705;23;20051;-95